Terminal Aerodrome Forecast
Issued by NWS Chicago, IL

Home | Current Version | Previous Version | Text Only | Print | Product List | Glossary On
Versions: 1 2 3 4 5 6 7 8 9 10 11 12 13 14 15 16 17 18 19 20 21 22 23 24 25
000
FTUS43 KLOT 301859 AAA
TAFRFD
TAF AMD
KRFD 301859Z 3019/3118 34010G15KT P6SM FEW045 SCT250
     FM310100 11006KT P6SM SCT120
     FM311500 17008KT P6SM SCT050=

USA.gov is the U.S. government's official web portal to all federal, state and local government web resources and services.